createdAt,value
2023-02-21T00:01:58.041Z,89.48
2023-02-21T00:04:44.659Z,89.65
2023-02-21T00:07:29.687Z,89.57
2023-02-21T00:10:14.957Z,89.61
2023-02-21T00:12:59.894Z,89.60
2023-02-21T00:15:45.349Z,89.40
2023-02-21T00:18:30.515Z,89.41
2023-02-21T00:21:15.839Z,89.53
2023-02-21T00:24:01.045Z,89.80
2023-02-21T00:26:46.114Z,89.88
2023-02-21T00:29:31.645Z,89.99
2023-02-21T00:32:16.535Z,90.19
2023-02-21T00:35:01.840Z,90.48
2023-02-21T00:37:47.437Z,90.33
2023-02-21T00:40:34.600Z,90.17
2023-02-21T00:43:19.746Z,89.83
2023-02-21T00:46:05.320Z,89.74
2023-02-21T00:48:50.792Z,89.68
2023-02-21T00:51:36.065Z,89.76
2023-02-21T00:54:21.280Z,89.63
2023-02-21T01:01:58.885Z,90.38
2023-02-21T01:04:43.795Z,90.54
2023-02-21T01:07:28.682Z,90.33
2023-02-21T01:10:14.055Z,90.04
2023-02-21T01:12:58.857Z,90.17
2023-02-21T01:15:43.982Z,90.33
2023-02-21T01:18:28.975Z,90.08
2023-02-21T01:21:14.254Z,90.48
2023-02-21T01:23:59.451Z,90.51
2023-02-21T01:26:44.378Z,90.52
2023-02-21T01:29:29.885Z,90.38
2023-02-21T01:32:14.914Z,90.65
2023-02-21T01:35:00.102Z,90.70
2023-02-21T01:37:44.976Z,90.30
2023-02-21T01:40:34.888Z,90.47
2023-02-21T01:43:19.857Z,90.80
2023-02-21T01:46:09.040Z,90.98
2023-02-21T01:48:55.174Z,90.86
2023-02-21T01:51:45.538Z,90.91
2023-02-21T01:54:30.996Z,90.75
2023-02-21T01:57:19.988Z,90.66
2023-02-21T02:00:05.949Z,90.22
2023-02-21T02:03:03.114Z,90.36
2023-02-21T02:05:48.363Z,90.59
2023-02-21T02:08:38.482Z,90.75
2023-02-21T02:11:35.166Z,90.41
2023-02-21T02:14:25.787Z,90.44
2023-02-21T02:17:19.703Z,90.42
2023-02-21T02:20:15.631Z,90.43
2023-02-21T02:23:19.207Z,90.60
2023-02-21T02:26:23.340Z,90.43
2023-02-21T02:29:27.530Z,90.53
2023-02-21T02:32:18.363Z,90.53
2023-02-21T02:35:03.943Z,90.46
2023-02-21T02:37:47.147Z,90.60
2023-02-21T02:40:42.155Z,90.71
2023-02-21T02:43:28.951Z,90.65
2023-02-21T02:46:20.330Z,90.63
2023-02-21T02:48:55.718Z,90.83
2023-02-21T02:51:22.853Z,90.98
2023-02-21T02:53:49.431Z,91.01
2023-02-21T02:56:21.143Z,91.31
2023-02-21T02:59:00.147Z,91.27
2023-02-21T03:01:44.780Z,91.17
2023-02-21T03:04:17.234Z,91.18
2023-02-21T03:06:56.698Z,90.81
2023-02-21T03:09:35.328Z,90.99
2023-02-21T03:12:20.421Z,90.97
2023-02-21T03:14:54.916Z,90.74
2023-02-21T03:17:24.781Z,90.55
2023-02-21T03:19:53.984Z,90.41
2023-02-21T03:22:24.568Z,90.50
2023-02-21T03:24:52.276Z,90.15
2023-02-21T03:27:21.337Z,90.26
2023-02-21T03:29:48.487Z,90.80
2023-02-21T03:32:26.284Z,90.28
2023-02-21T03:34:53.044Z,90.28
2023-02-21T03:37:21.610Z,90.42
2023-02-21T03:39:48.145Z,90.46
2023-02-21T03:42:14.631Z,90.68
2023-02-21T03:44:41.086Z,90.68
2023-02-21T03:47:07.667Z,90.77
2023-02-21T03:49:34.143Z,90.75
2023-02-21T03:52:00.614Z,90.84
2023-02-21T03:54:27.525Z,90.85
2023-02-21T03:56:54.006Z,90.95
2023-02-21T03:59:20.632Z,90.53
2023-02-21T04:01:47.474Z,90.26
2023-02-21T04:04:14.154Z,90.47
2023-02-21T04:06:40.683Z,90.53
2023-02-21T04:09:07.242Z,90.56
2023-02-21T04:11:33.696Z,90.69
2023-02-21T04:14:00.210Z,90.81
2023-02-21T04:16:26.741Z,90.63
2023-02-21T04:18:53.303Z,90.39
2023-02-21T04:21:20.144Z,90.70
2023-02-21T04:23:46.733Z,90.74
2023-02-21T04:26:13.351Z,90.48
2023-02-21T04:28:39.846Z,90.77
2023-02-21T04:31:06.559Z,90.77
2023-02-21T04:33:33.177Z,90.72
2023-02-21T04:35:59.663Z,90.75
2023-02-21T04:38:26.164Z,90.68
2023-02-21T04:40:53.013Z,91.11
2023-02-21T04:43:21.139Z,91.48
2023-02-21T04:45:47.890Z,91.51
2023-02-21T04:48:14.738Z,91.32
2023-02-21T04:50:41.234Z,91.40
2023-02-21T04:53:07.697Z,91.65
2023-02-21T04:55:34.218Z,91.48
2023-02-21T04:58:00.741Z,91.68
2023-02-21T05:00:27.201Z,91.73
2023-02-21T05:02:54.415Z,91.68
2023-02-21T05:05:20.918Z,91.43
2023-02-21T05:07:47.465Z,91.21
2023-02-21T05:10:15.774Z,91.08
2023-02-21T05:12:42.373Z,90.97
2023-02-21T05:15:09.990Z,91.02
2023-02-21T05:17:36.528Z,91.15
2023-02-21T05:20:03.981Z,91.11
2023-02-21T05:22:30.576Z,91.01
2023-02-21T05:24:57.017Z,91.42
2023-02-21T05:27:23.737Z,91.24
2023-02-21T05:29:52.888Z,90.36
2023-02-21T05:32:21.640Z,89.88
2023-02-21T05:34:48.130Z,90.01
2023-02-21T05:37:15.934Z,89.71
2023-02-21T05:39:42.782Z,89.67
2023-02-21T05:42:09.622Z,89.88
2023-02-21T05:44:36.066Z,89.67
2023-02-21T05:47:02.973Z,89.89
2023-02-21T05:49:29.486Z,89.61
2023-02-21T05:51:59.117Z,89.73
2023-02-21T05:54:25.651Z,89.67
2023-02-21T05:56:52.940Z,89.73
2023-02-21T05:59:20.828Z,89.97
2023-02-21T06:01:47.806Z,90.19
2023-02-21T06:04:14.517Z,89.74
2023-02-21T06:06:41.459Z,89.83
2023-02-21T06:09:08.540Z,89.94
2023-02-21T06:11:37.746Z,89.74
2023-02-21T06:14:06.578Z,90.07
2023-02-21T06:16:35.035Z,90.11
2023-02-21T06:19:02.614Z,90.15
2023-02-21T06:21:29.095Z,90.32
2023-02-21T06:23:58.318Z,90.59
2023-02-21T06:26:25.168Z,90.52
2023-02-21T06:28:51.765Z,90.59
2023-02-21T06:31:19.932Z,91.58
2023-02-21T06:33:48.013Z,91.59
2023-02-21T06:36:18.921Z,92.16
2023-02-21T06:38:46.767Z,92.56
2023-02-21T06:41:17.548Z,92.64
2023-02-21T06:43:44.233Z,92.74
2023-02-21T06:46:10.752Z,92.78
2023-02-21T06:48:37.260Z,93.15
2023-02-21T06:51:05.588Z,93.25
2023-02-21T06:53:32.123Z,93.73
2023-02-21T06:55:58.581Z,93.73
2023-02-21T06:58:25.105Z,94.00
2023-02-21T07:00:51.643Z,94.17
2023-02-21T07:03:18.121Z,94.11
2023-02-21T07:05:44.663Z,94.26
2023-02-21T07:08:11.168Z,94.31
2023-02-21T07:10:37.668Z,94.11
2023-02-21T07:13:04.204Z,94.07
2023-02-21T07:15:30.885Z,94.27
2023-02-21T07:17:59.721Z,94.02
2023-02-21T07:20:26.344Z,93.96
2023-02-21T07:22:53.019Z,94.30
2023-02-21T07:25:22.220Z,94.32
2023-02-21T07:27:49.407Z,94.27
2023-02-21T07:33:39.746Z,94.71
2023-02-21T07:36:07.523Z,94.77
2023-02-21T07:38:34.105Z,95.12
2023-02-21T07:41:02.905Z,94.72
2023-02-21T07:43:30.797Z,94.67
2023-02-21T07:45:57.660Z,94.65
2023-02-21T07:48:24.233Z,94.55
2023-02-21T07:50:50.726Z,94.45
2023-02-21T07:53:17.601Z,94.41
2023-02-21T07:55:44.343Z,94.34
2023-02-21T07:58:10.875Z,94.59
2023-02-21T08:00:40.284Z,94.49
2023-02-21T08:03:07.868Z,94.33
2023-02-21T08:05:34.343Z,94.47
2023-02-21T08:32:38.782Z,95.49
2023-02-21T08:49:10.952Z,95.18
2023-02-21T08:52:09.129Z,95.32
2023-02-21T18:58:38.882Z,95.10
2023-02-21T19:01:06.699Z,95.57
2023-02-21T19:06:16.606Z,95.68
2023-02-21T19:08:48.502Z,95.69
2023-02-21T19:11:15.976Z,95.78
2023-02-21T19:16:27.885Z,95.99
2023-02-21T19:18:56.375Z,96.11
2023-02-21T19:21:23.907Z,96.15
2023-02-21T19:23:50.518Z,96.25
2023-02-21T19:26:17.808Z,96.23
2023-02-21T19:28:44.567Z,96.23
2023-02-21T19:31:16.306Z,96.35
2023-02-21T19:33:44.068Z,96.43
2023-02-21T19:36:11.795Z,96.62
2023-02-21T19:38:38.383Z,96.87
2023-02-21T19:41:06.681Z,96.90
2023-02-21T19:43:34.226Z,97.07
2023-02-21T19:46:00.979Z,97.23
2023-02-21T19:48:28.052Z,97.45
2023-02-21T19:50:54.733Z,97.59
2023-02-21T19:53:21.351Z,97.60
2023-02-21T19:55:48.019Z,97.79
2023-02-21T19:58:14.820Z,97.92
2023-02-21T20:00:43.246Z,98.02
2023-02-21T20:03:10.531Z,97.99
2023-02-21T20:05:37.277Z,98.06
2023-02-21T20:08:04.161Z,98.10
2023-02-21T20:10:31.124Z,98.19
2023-02-21T20:12:58.347Z,98.14
2023-02-21T20:15:25.035Z,98.13
2023-02-21T20:17:53.440Z,97.99
2023-02-21T20:20:20.502Z,97.90
2023-02-21T20:22:46.982Z,98.09
2023-02-21T20:25:13.451Z,98.33
2023-02-21T20:27:41.844Z,98.47
2023-02-21T20:30:09.339Z,98.45
2023-02-21T20:32:35.951Z,98.35
2023-02-21T20:35:02.997Z,98.24
2023-02-21T20:37:31.431Z,98.20
2023-02-21T20:39:58.620Z,98.27
2023-02-21T20:42:25.509Z,98.25
2023-02-21T20:44:52.044Z,98.31
2023-02-21T20:47:19.728Z,98.46
2023-02-21T20:49:47.762Z,98.65
2023-02-21T20:52:15.315Z,98.74
2023-02-21T20:54:42.598Z,98.82
2023-02-21T20:57:09.859Z,98.88
2023-02-21T20:59:39.398Z,98.82
2023-02-21T21:02:08.110Z,98.78
2023-02-21T21:04:37.649Z,98.67
2023-02-21T21:07:07.698Z,98.50
